Aeroporto :
LOGIN :

Iscrizione | Disclaimer

   EN    FR    IT 

 










Sommario :    VFR   VFR Marginale   IFR   IFR Intensivo   IFR Molto Intensivo
Visibilità : 
Base nubi : 
>= 8 km
>= 3000ft
5 / 8 km
1000 / 3000 ft
1500m / 5 km
500 / 1000 ft
800 / 1500m
200 / 500 ft
< 800m
< 200 ft
Simboli :   Temporali  Nebbia  Neve Forte  Precipitazioni Forti  Vento > 20 kt
SIGMETs :   Varie  Temporali  Ghiacco  Turbolenza  Onda orograficha  Ceneri Vulcaniche






- Altitudine del aeroporto : 1260 ft
- Codice IATA : LDE


LFBT - Tarbes / Ossun

ULTIMO METAR :
  • 180500Z AUTO 23004KT CAVOK 17/15 Q1012 TEMPO BKN012

METARs OBSOLETI :
  • 180430Z AUTO 21005KT 180V240 9999 FEW020 BKN130 17/15 Q1012 TEMPO BKN012
  • 180400Z AUTO 24007KT CAVOK 17/15 Q1012 TEMPO BKN012
  • 180330Z AUTO 25005KT 210V290 9999 FEW011 17/15 Q1012 TEMPO BKN012
  • 180300Z AUTO 29004KT 250V320 9999 BKN012 18/15 Q1012 NOSIG
  • 180230Z AUTO 32004KT 260V010 9999 SCT012 18/16 Q1011 TEMPO BKN012
  • 180200Z AUTO 28011KT 250V310 9999 BKN011 19/17 Q1011 BECMG NSC
  • 180130Z AUTO 28008KT 240V310 9999 FEW011 20/18 Q1010 NOSIG
  • 180100Z AUTO 29003KT 230V330 CAVOK 18/17 Q1010 NOSIG
  • 180030Z AUTO 31006KT 7000 NSC 18/17 Q1009 NOSIG
  • 180000Z AUTO VRB02KT 9000 NSC 18/17 Q1009 NOSIG

TAF AMD TAF LFBT
Valido dal 18 a 02 ore il 19 a 00 ore UTC


180215Z 1802/1824 28011KT CAVOK
PROB30
TEMPO 1802/1807 BKN012
BECMG 1808/1810 VRB03KT SCT025
BECMG 1811/1813 08006KT CAVOK
PROB30
TEMPO 1816/1821 28020G35KT SHRA FEW060CB BKN090
FM182100 26010KT 9999 BKN050



MetMap, La meteo Aeronautica in un colpo d'occhio ! - Copyright ORBIFLY Dicembre 2007 - Disclaimer

ORBIFLY MET'MAP TEAM :

Programmazione e sviluppo : Alexandra Zaïnal
Concezione : Baudouin d'Aumeries
Supporto tecnico e logistico : Manuel Goepfert
Aiuto : Marc-Olivier Méhu
Aiuto per la traduzione : Arnaldo La Scala




FONTI E CREDITI :

   NOAA